sensor_id;sensor_type;location;lat;lon;timestamp;temperature;humidity
19654;DHT22;9975;48.046;7.804;2022-07-29T02:04:12;17.80;99.90
19654;DHT22;9975;48.046;7.804;2022-07-29T02:06:40;17.90;99.90
19654;DHT22;9975;48.046;7.804;2022-07-29T02:09:08;17.90;99.90
19654;DHT22;9975;48.046;7.804;2022-07-29T02:11:36;18.00;99.90
19654;DHT22;9975;48.046;7.804;2022-07-29T02:14:04;18.00;99.90
19654;DHT22;9975;48.046;7.804;2022-07-29T02:16:31;18.00;99.90
19654;DHT22;9975;48.046;7.804;2022-07-29T02:18:58;18.00;99.90
19654;DHT22;9975;48.046;7.804;2022-07-29T02:21:26;18.00;99.90
19654;DHT22;9975;48.046;7.804;2022-07-29T02:23:53;18.00;99.90
19654;DHT22;9975;48.046;7.804;2022-07-29T02:26:21;18.00;99.90
19654;DHT22;9975;48.046;7.804;2022-07-29T02:28:50;18.00;99.90
19654;DHT22;9975;48.046;7.804;2022-07-29T02:31:18;18.00;99.90
19654;DHT22;9975;48.046;7.804;2022-07-29T02:33:45;18.00;99.90
19654;DHT22;9975;48.046;7.804;2022-07-29T02:36:12;17.90;99.90
19654;DHT22;9975;48.046;7.804;2022-07-29T02:38:41;17.80;99.90
19654;DHT22;9975;48.046;7.804;2022-07-29T02:44:14;17.80;99.90
19654;DHT22;9975;48.046;7.804;2022-07-29T02:57:35;17.70;99.90
19654;DHT22;9975;48.046;7.804;2022-07-29T03:00:06;17.80;99.90
19654;DHT22;9975;48.046;7.804;2022-07-29T03:02:42;17.80;99.90
19654;DHT22;9975;48.046;7.804;2022-07-29T03:05:12;17.80;99.90
19654;DHT22;9975;48.046;7.804;2022-07-29T03:07:43;17.80;99.90
19654;DHT22;9975;48.046;7.804;2022-07-29T03:10:11;17.80;99.90
19654;DHT22;9975;48.046;7.804;2022-07-29T03:12:38;17.70;99.90
19654;DHT22;9975;48.046;7.804;2022-07-29T03:15:06;17.60;99.90
19654;DHT22;9975;48.046;7.804;2022-07-29T03:17:32;17.50;99.90
19654;DHT22;9975;48.046;7.804;2022-07-29T03:19:58;17.50;99.90
19654;DHT22;9975;48.046;7.804;2022-07-29T03:22:24;17.50;99.90
19654;DHT22;9975;48.046;7.804;2022-07-29T03:24:50;17.50;99.90
19654;DHT22;9975;48.046;7.804;2022-07-29T03:27:16;17.40;99.90
19654;DHT22;9975;48.046;7.804;2022-07-29T03:29:41;17.40;99.90
19654;DHT22;9975;48.046;7.804;2022-07-29T03:32:07;17.20;99.90
19654;DHT22;9975;48.046;7.804;2022-07-29T03:34:33;17.30;99.90
19654;DHT22;9975;48.046;7.804;2022-07-29T03:36:58;17.20;99.90
19654;DHT22;9975;48.046;7.804;2022-07-29T03:39:27;17.20;99.90
19654;DHT22;9975;48.046;7.804;2022-07-29T03:41:56;17.20;99.90
19654;DHT22;9975;48.046;7.804;2022-07-29T03:44:24;17.10;99.90
19654;DHT22;9975;48.046;7.804;2022-07-29T03:46:50;17.20;99.90
19654;DHT22;9975;48.046;7.804;2022-07-29T03:49:18;17.20;99.90
19654;DHT22;9975;48.046;7.804;2022-07-29T03:51:45;17.20;99.90
19654;DHT22;9975;48.046;7.804;2022-07-29T03:54:11;17.20;99.90
19654;DHT22;9975;48.046;7.804;2022-07-29T03:56:42;17.10;99.90
19654;DHT22;9975;48.046;7.804;2022-07-29T03:59:10;17.10;99.90
19654;DHT22;9975;48.046;7.804;2022-07-29T04:01:37;17.10;99.90
19654;DHT22;9975;48.046;7.804;2022-07-29T04:04:04;17.10;99.90
19654;DHT22;9975;48.046;7.804;2022-07-29T04:06:41;17.10;99.90
19654;DHT22;9975;48.046;7.804;2022-07-29T04:09:07;17.00;99.90
19654;DHT22;9975;48.046;7.804;2022-07-29T04:11:34;17.00;99.90
19654;DHT22;9975;48.046;7.804;2022-07-29T04:13:59;17.00;99.90
19654;DHT22;9975;48.046;7.804;2022-07-29T04:16:25;17.10;99.90
19654;DHT22;9975;48.046;7.804;2022-07-29T04:18:50;17.10;99.90
19654;DHT22;9975;48.046;7.804;2022-07-29T04:21:16;17.10;99.90
19654;DHT22;9975;48.046;7.804;2022-07-29T04:23:42;17.10;99.90
19654;DHT22;9975;48.046;7.804;2022-07-29T04:26:10;17.10;99.90
19654;DHT22;9975;48.046;7.804;2022-07-29T04:28:36;17.10;99.90
19654;DHT22;9975;48.046;7.804;2022-07-29T04:31:03;17.10;99.90
19654;DHT22;9975;48.046;7.804;2022-07-29T04:33:29;17.20;99.90
19654;DHT22;9975;48.046;7.804;2022-07-29T04:35:54;17.20;99.90
19654;DHT22;9975;48.046;7.804;2022-07-29T04:38:20;17.20;99.90
19654;DHT22;9975;48.046;7.804;2022-07-29T04:40:46;17.40;99.90
19654;DHT22;9975;48.046;7.804;2022-07-29T04:43:11;17.40;99.90
19654;DHT22;9975;48.046;7.804;2022-07-29T04:45:37;17.40;99.90
19654;DHT22;9975;48.046;7.804;2022-07-29T04:48:03;17.50;99.90
19654;DHT22;9975;48.046;7.804;2022-07-29T04:50:28;17.50;99.90
19654;DHT22;9975;48.046;7.804;2022-07-29T04:52:54;17.50;99.90
19654;DHT22;9975;48.046;7.804;2022-07-29T04:55:19;17.50;99.90
19654;DHT22;9975;48.046;7.804;2022-07-29T04:57:45;17.50;99.90
19654;DHT22;9975;48.046;7.804;2022-07-29T05:00:11;17.60;99.90
19654;DHT22;9975;48.046;7.804;2022-07-29T05:02:37;17.60;99.90
19654;DHT22;9975;48.046;7.804;2022-07-29T05:05:03;17.60;99.90
19654;DHT22;9975;48.046;7.804;2022-07-29T05:07:28;17.60;99.90
19654;DHT22;9975;48.046;7.804;2022-07-29T05:09:54;17.60;99.90
19654;DHT22;9975;48.046;7.804;2022-07-29T05:12:22;17.60;99.90
19654;DHT22;9975;48.046;7.804;2022-07-29T05:14:48;17.60;99.90
19654;DHT22;9975;48.046;7.804;2022-07-29T05:17:14;17.70;99.90
19654;DHT22;9975;48.046;7.804;2022-07-29T05:19:39;17.60;99.90
19654;DHT22;9975;48.046;7.804;2022-07-29T05:22:05;17.70;99.90
19654;DHT22;9975;48.046;7.804;2022-07-29T05:24:31;17.70;99.90
19654;DHT22;9975;48.046;7.804;2022-07-29T05:26:56;17.70;99.90
19654;DHT22;9975;48.046;7.804;2022-07-29T05:29:22;17.80;99.90
19654;DHT22;9975;48.046;7.804;2022-07-29T05:31:47;17.90;99.90
19654;DHT22;9975;48.046;7.804;2022-07-29T05:34:13;18.00;99.90
19654;DHT22;9975;48.046;7.804;2022-07-29T05:36:39;18.00;99.90
19654;DHT22;9975;48.046;7.804;2022-07-29T05:39:04;18.00;99.90
19654;DHT22;9975;48.046;7.804;2022-07-29T05:41:33;18.10;99.90
19654;DHT22;9975;48.046;7.804;2022-07-29T05:43:58;18.10;99.90
19654;DHT22;9975;48.046;7.804;2022-07-29T05:46:24;18.20;99.90
19654;DHT22;9975;48.046;7.804;2022-07-29T05:48:50;18.20;99.90
19654;DHT22;9975;48.046;7.804;2022-07-29T05:51:15;18.30;99.90
19654;DHT22;9975;48.046;7.804;2022-07-29T05:53:41;18.30;99.90
19654;DHT22;9975;48.046;7.804;2022-07-29T05:56:07;18.40;99.90
19654;DHT22;9975;48.046;7.804;2022-07-29T05:58:41;18.40;99.90
19654;DHT22;9975;48.046;7.804;2022-07-29T06:01:07;18.40;99.90
19654;DHT22;9975;48.046;7.804;2022-07-29T06:03:33;18.40;99.90
19654;DHT22;9975;48.046;7.804;2022-07-29T06:05:58;18.40;99.90
19654;DHT22;9975;48.046;7.804;2022-07-29T06:08:24;18.50;99.90
19654;DHT22;9975;48.046;7.804;2022-07-29T06:10:50;18.60;99.90
19654;DHT22;9975;48.046;7.804;2022-07-29T06:13:15;18.70;99.90
19654;DHT22;9975;48.046;7.804;2022-07-29T06:15:41;18.80;99.90
19654;DHT22;9975;48.046;7.804;2022-07-29T06:18:07;18.80;99.90
19654;DHT22;9975;48.046;7.804;2022-07-29T06:20:34;19.00;99.90
19654;DHT22;9975;48.046;7.804;2022-07-29T06:23:00;19.10;99.90
19654;DHT22;9975;48.046;7.804;2022-07-29T06:25:27;19.10;99.90
19654;DHT22;9975;48.046;7.804;2022-07-29T06:27:54;19.20;99.90
19654;DHT22;9975;48.046;7.804;2022-07-29T06:30:20;19.30;99.90
19654;DHT22;9975;48.046;7.804;2022-07-29T06:32:45;19.60;99.90
19654;DHT22;9975;48.046;7.804;2022-07-29T06:35:11;19.70;99.90
19654;DHT22;9975;48.046;7.804;2022-07-29T06:37:37;19.80;99.90
19654;DHT22;9975;48.046;7.804;2022-07-29T06:40:03;19.90;99.90
19654;DHT22;9975;48.046;7.804;2022-07-29T06:42:47;19.90;99.90
19654;DHT22;9975;48.046;7.804;2022-07-29T06:45:13;20.00;99.90
19654;DHT22;9975;48.046;7.804;2022-07-29T06:47:38;20.10;99.90
19654;DHT22;9975;48.046;7.804;2022-07-29T06:50:05;20.10;99.90
19654;DHT22;9975;48.046;7.804;2022-07-29T06:52:31;20.20;99.90
19654;DHT22;9975;48.046;7.804;2022-07-29T06:54:56;20.20;99.90
19654;DHT22;9975;48.046;7.804;2022-07-29T06:57:22;20.40;99.90
19654;DHT22;9975;48.046;7.804;2022-07-29T06:59:48;20.50;99.90
19654;DHT22;9975;48.046;7.804;2022-07-29T07:02:14;20.70;99.90
19654;DHT22;9975;48.046;7.804;2022-07-29T07:04:39;20.80;99.90
19654;DHT22;9975;48.046;7.804;2022-07-29T07:07:05;20.90;99.90
19654;DHT22;9975;48.046;7.804;2022-07-29T07:09:30;21.00;99.90
19654;DHT22;9975;48.046;7.804;2022-07-29T07:11:56;21.00;99.90
19654;DHT22;9975;48.046;7.804;2022-07-29T07:14:21;21.10;99.90
19654;DHT22;9975;48.046;7.804;2022-07-29T07:16:47;21.20;99.90
19654;DHT22;9975;48.046;7.804;2022-07-29T07:19:13;21.50;99.90
19654;DHT22;9975;48.046;7.804;2022-07-29T07:21:38;21.70;99.90
19654;DHT22;9975;48.046;7.804;2022-07-29T07:24:04;21.90;99.90
19654;DHT22;9975;48.046;7.804;2022-07-29T07:26:30;22.00;99.90
19654;DHT22;9975;48.046;7.804;2022-07-29T07:28:56;22.20;99.90
19654;DHT22;9975;48.046;7.804;2022-07-29T07:31:51;22.40;99.90
19654;DHT22;9975;48.046;7.804;2022-07-29T07:34:17;22.60;99.90
19654;DHT22;9975;48.046;7.804;2022-07-29T07:36:43;22.80;99.90
19654;DHT22;9975;48.046;7.804;2022-07-29T07:39:09;22.80;99.70
19654;DHT22;9975;48.046;7.804;2022-07-29T07:41:34;22.80;99.20
19654;DHT22;9975;48.046;7.804;2022-07-29T07:44:00;22.90;99.00
19654;DHT22;9975;48.046;7.804;2022-07-29T07:46:25;22.90;98.50
19654;DHT22;9975;48.046;7.804;2022-07-29T07:48:51;22.90;98.50
19654;DHT22;9975;48.046;7.804;2022-07-29T07:51:17;23.00;98.30
19654;DHT22;9975;48.046;7.804;2022-07-29T07:53:43;22.90;98.40
19654;DHT22;9975;48.046;7.804;2022-07-29T07:56:10;23.00;98.20
19654;DHT22;9975;48.046;7.804;2022-07-29T07:58:35;23.00;97.80
19654;DHT22;9975;48.046;7.804;2022-07-29T08:01:01;22.90;97.80
19654;DHT22;9975;48.046;7.804;2022-07-29T08:03:27;23.00;97.80
19654;DHT22;9975;48.046;7.804;2022-07-29T08:05:52;22.90;97.90
19654;DHT22;9975;48.046;7.804;2022-07-29T08:08:19;23.00;97.40
19654;DHT22;9975;48.046;7.804;2022-07-29T08:10:45;22.90;97.70
19654;DHT22;9975;48.046;7.804;2022-07-29T08:13:18;23.00;97.60
19654;DHT22;9975;48.046;7.804;2022-07-29T08:15:44;23.10;97.80
19654;DHT22;9975;48.046;7.804;2022-07-29T08:18:12;23.20;97.70
19654;DHT22;9975;48.046;7.804;2022-07-29T08:20:38;23.40;96.90
19654;DHT22;9975;48.046;7.804;2022-07-29T08:23:06;23.40;97.10
19654;DHT22;9975;48.046;7.804;2022-07-29T08:25:35;23.50;96.50
19654;DHT22;9975;48.046;7.804;2022-07-29T08:28:01;23.60;96.80
19654;DHT22;9975;48.046;7.804;2022-07-29T08:30:26;23.70;96.70
19654;DHT22;9975;48.046;7.804;2022-07-29T08:32:52;23.50;95.50
19654;DHT22;9975;48.046;7.804;2022-07-29T08:35:19;23.70;95.80
19654;DHT22;9975;48.046;7.804;2022-07-29T08:37:45;23.80;94.80
19654;DHT22;9975;48.046;7.804;2022-07-29T08:40:11;23.90;94.70
19654;DHT22;9975;48.046;7.804;2022-07-29T08:42:37;24.00;94.20
19654;DHT22;9975;48.046;7.804;2022-07-29T08:45:04;24.20;93.90
19654;DHT22;9975;48.046;7.804;2022-07-29T08:47:29;24.30;92.90
19654;DHT22;9975;48.046;7.804;2022-07-29T08:49:55;24.40;92.60
19654;DHT22;9975;48.046;7.804;2022-07-29T08:52:21;24.50;91.30
19654;DHT22;9975;48.046;7.804;2022-07-29T08:54:51;24.50;90.90
19654;DHT22;9975;48.046;7.804;2022-07-29T08:57:17;24.60;90.70
19654;DHT22;9975;48.046;7.804;2022-07-29T08:59:45;24.70;90.60
19654;DHT22;9975;48.046;7.804;2022-07-29T09:02:18;24.80;90.40
19654;DHT22;9975;48.046;7.804;2022-07-29T09:04:44;24.80;90.30
19654;DHT22;9975;48.046;7.804;2022-07-29T09:07:15;24.60;90.20
19654;DHT22;9975;48.046;7.804;2022-07-29T09:09:41;24.60;90.50
19654;DHT22;9975;48.046;7.804;2022-07-29T09:12:08;24.70;90.70
19654;DHT22;9975;48.046;7.804;2022-07-29T09:14:34;24.70;89.90
19654;DHT22;9975;48.046;7.804;2022-07-29T09:17:00;24.70;88.90
19654;DHT22;9975;48.046;7.804;2022-07-29T09:19:30;24.70;89.20
19654;DHT22;9975;48.046;7.804;2022-07-29T09:21:57;24.70;89.10
19654;DHT22;9975;48.046;7.804;2022-07-29T09:24:22;24.80;89.00
19654;DHT22;9975;48.046;7.804;2022-07-29T09:26:49;24.90;88.30
19654;DHT22;9975;48.046;7.804;2022-07-29T09:29:19;25.00;88.10
19654;DHT22;9975;48.046;7.804;2022-07-29T09:31:48;25.00;87.30
19654;DHT22;9975;48.046;7.804;2022-07-29T09:34:20;25.00;87.10
19654;DHT22;9975;48.046;7.804;2022-07-29T09:36:47;25.10;85.10
19654;DHT22;9975;48.046;7.804;2022-07-29T09:39:14;25.20;82.70
19654;DHT22;9975;48.046;7.804;2022-07-29T09:41:48;25.10;80.30
19654;DHT22;9975;48.046;7.804;2022-07-29T09:44:15;25.20;80.80
19654;DHT22;9975;48.046;7.804;2022-07-29T09:46:55;25.20;79.40
19654;DHT22;9975;48.046;7.804;2022-07-29T09:49:21;25.50;78.90
19654;DHT22;9975;48.046;7.804;2022-07-29T09:51:46;25.20;77.80
19654;DHT22;9975;48.046;7.804;2022-07-29T09:54:23;25.30;77.50
19654;DHT22;9975;48.046;7.804;2022-07-29T09:56:50;25.20;77.30
19654;DHT22;9975;48.046;7.804;2022-07-29T09:59:15;25.30;77.30
19654;DHT22;9975;48.046;7.804;2022-07-29T10:01:41;25.60;77.30
19654;DHT22;9975;48.046;7.804;2022-07-29T10:04:07;25.70;76.60
19654;DHT22;9975;48.046;7.804;2022-07-29T10:06:33;25.60;77.50
19654;DHT22;9975;48.046;7.804;2022-07-29T10:09:19;25.70;75.70
19654;DHT22;9975;48.046;7.804;2022-07-29T10:12:04;25.90;74.20
19654;DHT22;9975;48.046;7.804;2022-07-29T10:14:33;25.90;72.90
19654;DHT22;9975;48.046;7.804;2022-07-29T10:17:00;25.90;71.70
19654;DHT22;9975;48.046;7.804;2022-07-29T10:19:29;26.10;72.30
19654;DHT22;9975;48.046;7.804;2022-07-29T10:21:59;26.40;71.70
19654;DHT22;9975;48.046;7.804;2022-07-29T10:24:30;26.50;70.10
19654;DHT22;9975;48.046;7.804;2022-07-29T10:26:57;26.90;70.10
19654;DHT22;9975;48.046;7.804;2022-07-29T10:29:23;26.50;70.00
19654;DHT22;9975;48.046;7.804;2022-07-29T10:37:55;26.60;67.10
19654;DHT22;9975;48.046;7.804;2022-07-29T10:43:43;26.50;65.30
19654;DHT22;9975;48.046;7.804;2022-07-29T10:46:09;26.70;65.10
19654;DHT22;9975;48.046;7.804;2022-07-29T10:48:35;26.70;65.00
19654;DHT22;9975;48.046;7.804;2022-07-29T10:51:21;26.50;62.80
19654;DHT22;9975;48.046;7.804;2022-07-29T10:53:50;26.50;62.40
19654;DHT22;9975;48.046;7.804;2022-07-29T10:56:27;26.60;61.40
19654;DHT22;9975;48.046;7.804;2022-07-29T11:01:44;27.20;61.20
19654;DHT22;9975;48.046;7.804;2022-07-29T11:04:10;27.30;61.90
19654;DHT22;9975;48.046;7.804;2022-07-29T11:09:26;27.40;57.40
19654;DHT22;9975;48.046;7.804;2022-07-29T11:11:52;27.10;58.20
19654;DHT22;9975;48.046;7.804;2022-07-29T11:14:20;27.10;58.20
19654;DHT22;9975;48.046;7.804;2022-07-29T11:17:05;27.20;58.90
19654;DHT22;9975;48.046;7.804;2022-07-29T11:19:31;27.20;58.40
19654;DHT22;9975;48.046;7.804;2022-07-29T11:21:57;27.20;58.30
19654;DHT22;9975;48.046;7.804;2022-07-29T11:24:26;27.40;58.20
19654;DHT22;9975;48.046;7.804;2022-07-29T11:27:12;27.40;57.00
19654;DHT22;9975;48.046;7.804;2022-07-29T11:30:00;27.50;56.30
19654;DHT22;9975;48.046;7.804;2022-07-29T11:32:42;27.50;55.90
19654;DHT22;9975;48.046;7.804;2022-07-29T11:35:13;27.60;57.00
19654;DHT22;9975;48.046;7.804;2022-07-29T11:37:39;27.60;57.00
19654;DHT22;9975;48.046;7.804;2022-07-29T11:47:29;27.70;57.50
19654;DHT22;9975;48.046;7.804;2022-07-29T11:49:56;27.50;57.80
19654;DHT22;9975;48.046;7.804;2022-07-29T11:52:33;27.40;57.90
19654;DHT22;9975;48.046;7.804;2022-07-29T11:55:01;27.40;57.40
19654;DHT22;9975;48.046;7.804;2022-07-29T11:57:28;27.30;57.40
19654;DHT22;9975;48.046;7.804;2022-07-29T11:59:55;27.30;57.10
19654;DHT22;9975;48.046;7.804;2022-07-29T12:02:23;27.30;56.90
19654;DHT22;9975;48.046;7.804;2022-07-29T12:04:53;27.10;56.70
19654;DHT22;9975;48.046;7.804;2022-07-29T12:07:32;27.00;57.20
19654;DHT22;9975;48.046;7.804;2022-07-29T12:09:59;27.10;58.10
19654;DHT22;9975;48.046;7.804;2022-07-29T12:12:25;27.20;57.80
19654;DHT22;9975;48.046;7.804;2022-07-29T12:14:51;26.90;57.40
19654;DHT22;9975;48.046;7.804;2022-07-29T12:17:26;26.90;57.00
19654;DHT22;9975;48.046;7.804;2022-07-29T12:19:53;26.90;57.40
19654;DHT22;9975;48.046;7.804;2022-07-29T12:22:27;26.80;58.30
19654;DHT22;9975;48.046;7.804;2022-07-29T12:24:54;26.90;59.90
19654;DHT22;9975;48.046;7.804;2022-07-29T12:27:20;26.60;60.40
19654;DHT22;9975;48.046;7.804;2022-07-29T12:30:07;26.60;63.20
19654;DHT22;9975;48.046;7.804;2022-07-29T12:32:41;26.60;61.40
19654;DHT22;9975;48.046;7.804;2022-07-29T12:35:18;26.60;62.00
19654;DHT22;9975;48.046;7.804;2022-07-29T12:37:45;26.60;61.70
19654;DHT22;9975;48.046;7.804;2022-07-29T12:40:15;26.60;60.30
19654;DHT22;9975;48.046;7.804;2022-07-29T12:45:30;26.70;59.20
19654;DHT22;9975;48.046;7.804;2022-07-29T12:47:56;26.70;58.90
19654;DHT22;9975;48.046;7.804;2022-07-29T12:50:22;26.60;58.40
19654;DHT22;9975;48.046;7.804;2022-07-29T12:52:48;26.60;58.70
19654;DHT22;9975;48.046;7.804;2022-07-29T12:55:14;26.60;59.00
19654;DHT22;9975;48.046;7.804;2022-07-29T12:57:50;26.80;58.80
19654;DHT22;9975;48.046;7.804;2022-07-29T13:00:23;26.80;58.30
19654;DHT22;9975;48.046;7.804;2022-07-29T13:02:59;26.80;57.60
19654;DHT22;9975;48.046;7.804;2022-07-29T13:05:43;26.80;57.20
19654;DHT22;9975;48.046;7.804;2022-07-29T13:08:13;26.70;57.80
19654;DHT22;9975;48.046;7.804;2022-07-29T13:10:39;26.80;57.80
19654;DHT22;9975;48.046;7.804;2022-07-29T13:13:10;26.80;58.00
19654;DHT22;9975;48.046;7.804;2022-07-29T13:15:41;26.80;58.20
19654;DHT22;9975;48.046;7.804;2022-07-29T13:18:33;26.70;58.30
19654;DHT22;9975;48.046;7.804;2022-07-29T13:21:14;26.80;59.20
19654;DHT22;9975;48.046;7.804;2022-07-29T13:23:41;26.70;59.60
19654;DHT22;9975;48.046;7.804;2022-07-29T13:26:07;26.70;59.40
19654;DHT22;9975;48.046;7.804;2022-07-29T13:28:33;26.50;60.20
19654;DHT22;9975;48.046;7.804;2022-07-29T13:30:59;26.10;60.40
19654;DHT22;9975;48.046;7.804;2022-07-29T13:33:25;25.90;62.10
19654;DHT22;9975;48.046;7.804;2022-07-29T13:35:51;25.80;61.70
19654;DHT22;9975;48.046;7.804;2022-07-29T13:38:16;25.90;63.20
19654;DHT22;9975;48.046;7.804;2022-07-29T13:40:42;25.90;61.80
19654;DHT22;9975;48.046;7.804;2022-07-29T13:43:11;26.00;61.40
19654;DHT22;9975;48.046;7.804;2022-07-29T13:45:37;26.10;61.60
19654;DHT22;9975;48.046;7.804;2022-07-29T13:48:03;26.00;59.30
19654;DHT22;9975;48.046;7.804;2022-07-29T13:50:29;26.00;59.60
19654;DHT22;9975;48.046;7.804;2022-07-29T13:52:55;26.00;60.20
19654;DHT22;9975;48.046;7.804;2022-07-29T13:55:20;26.00;60.20
19654;DHT22;9975;48.046;7.804;2022-07-29T13:57:46;26.00;59.80
19654;DHT22;9975;48.046;7.804;2022-07-29T14:00:13;26.00;60.30
19654;DHT22;9975;48.046;7.804;2022-07-29T14:02:38;26.00;61.60
19654;DHT22;9975;48.046;7.804;2022-07-29T14:05:08;26.10;61.90
19654;DHT22;9975;48.046;7.804;2022-07-29T14:07:35;26.10;62.20
19654;DHT22;9975;48.046;7.804;2022-07-29T14:10:02;26.00;63.50
19654;DHT22;9975;48.046;7.804;2022-07-29T14:12:28;25.80;64.30
19654;DHT22;9975;48.046;7.804;2022-07-29T14:14:53;25.60;63.60
19654;DHT22;9975;48.046;7.804;2022-07-29T14:17:19;25.60;62.80
19654;DHT22;9975;48.046;7.804;2022-07-29T14:19:44;25.70;61.60
19654;DHT22;9975;48.046;7.804;2022-07-29T14:22:10;25.60;62.20
19654;DHT22;9975;48.046;7.804;2022-07-29T14:24:36;25.50;61.20
19654;DHT22;9975;48.046;7.804;2022-07-29T14:27:02;25.50;60.40
19654;DHT22;9975;48.046;7.804;2022-07-29T14:29:28;25.60;59.60
19654;DHT22;9975;48.046;7.804;2022-07-29T14:31:53;25.50;60.30
19654;DHT22;9975;48.046;7.804;2022-07-29T14:34:19;25.40;59.30
19654;DHT22;9975;48.046;7.804;2022-07-29T14:36:45;25.50;59.20
19654;DHT22;9975;48.046;7.804;2022-07-29T14:39:10;25.60;58.70
19654;DHT22;9975;48.046;7.804;2022-07-29T14:41:36;25.60;58.10
19654;DHT22;9975;48.046;7.804;2022-07-29T14:44:02;25.60;57.50
19654;DHT22;9975;48.046;7.804;2022-07-29T14:46:28;25.60;56.40
19654;DHT22;9975;48.046;7.804;2022-07-29T14:48:53;25.60;56.00
19654;DHT22;9975;48.046;7.804;2022-07-29T14:51:19;25.50;56.50
19654;DHT22;9975;48.046;7.804;2022-07-29T14:53:45;25.60;55.90
19654;DHT22;9975;48.046;7.804;2022-07-29T14:56:11;25.60;55.20
19654;DHT22;9975;48.046;7.804;2022-07-29T14:58:37;25.60;55.00
19654;DHT22;9975;48.046;7.804;2022-07-29T15:01:02;25.60;54.60
19654;DHT22;9975;48.046;7.804;2022-07-29T15:03:28;25.50;55.20
19654;DHT22;9975;48.046;7.804;2022-07-29T15:05:56;25.60;54.40
19654;DHT22;9975;48.046;7.804;2022-07-29T15:08:22;25.70;54.40
19654;DHT22;9975;48.046;7.804;2022-07-29T15:10:48;25.70;54.20
19654;DHT22;9975;48.046;7.804;2022-07-29T15:13:14;25.80;53.30
19654;DHT22;9975;48.046;7.804;2022-07-29T15:15:39;25.90;52.80
19654;DHT22;9975;48.046;7.804;2022-07-29T15:18:06;25.90;52.90
19654;DHT22;9975;48.046;7.804;2022-07-29T15:20:32;25.90;52.30
19654;DHT22;9975;48.046;7.804;2022-07-29T15:22:57;25.90;52.50
19654;DHT22;9975;48.046;7.804;2022-07-29T15:25:24;25.90;52.40
19654;DHT22;9975;48.046;7.804;2022-07-29T15:27:50;25.80;51.80
19654;DHT22;9975;48.046;7.804;2022-07-29T15:30:16;25.80;51.70
19654;DHT22;9975;48.046;7.804;2022-07-29T15:32:45;25.70;51.70
19654;DHT22;9975;48.046;7.804;2022-07-29T15:35:11;25.60;51.70
19654;DHT22;9975;48.046;7.804;2022-07-29T15:37:39;25.80;52.10
19654;DHT22;9975;48.046;7.804;2022-07-29T15:40:06;25.90;51.00
19654;DHT22;9975;48.046;7.804;2022-07-29T15:42:35;26.00;51.40
19654;DHT22;9975;48.046;7.804;2022-07-29T15:45:00;26.10;51.10
19654;DHT22;9975;48.046;7.804;2022-07-29T15:47:28;26.00;51.10
19654;DHT22;9975;48.046;7.804;2022-07-29T15:49:54;26.00;50.60
19654;DHT22;9975;48.046;7.804;2022-07-29T15:52:20;26.00;51.00
19654;DHT22;9975;48.046;7.804;2022-07-29T15:54:45;26.20;50.90
19654;DHT22;9975;48.046;7.804;2022-07-29T15:57:12;26.50;50.90
19654;DHT22;9975;48.046;7.804;2022-07-29T15:59:38;26.50;50.20
19654;DHT22;9975;48.046;7.804;2022-07-29T16:02:03;26.50;49.60
19654;DHT22;9975;48.046;7.804;2022-07-29T16:04:29;26.60;49.50
19654;DHT22;9975;48.046;7.804;2022-07-29T16:06:56;26.70;48.90
19654;DHT22;9975;48.046;7.804;2022-07-29T16:09:21;26.40;48.90
19654;DHT22;9975;48.046;7.804;2022-07-29T16:11:47;26.30;49.10
19654;DHT22;9975;48.046;7.804;2022-07-29T16:14:16;26.30;49.10
19654;DHT22;9975;48.046;7.804;2022-07-29T16:16:41;26.60;49.00
19654;DHT22;9975;48.046;7.804;2022-07-29T16:19:07;26.90;48.40
19654;DHT22;9975;48.046;7.804;2022-07-29T16:21:34;27.30;48.30
19654;DHT22;9975;48.046;7.804;2022-07-29T16:24:00;27.40;46.50
19654;DHT22;9975;48.046;7.804;2022-07-29T16:26:26;27.30;45.90
19654;DHT22;9975;48.046;7.804;2022-07-29T16:28:52;27.30;45.20
19654;DHT22;9975;48.046;7.804;2022-07-29T16:31:18;27.50;45.20
19654;DHT22;9975;48.046;7.804;2022-07-29T16:33:49;27.70;45.50
19654;DHT22;9975;48.046;7.804;2022-07-29T16:36:19;28.10;45.00
19654;DHT22;9975;48.046;7.804;2022-07-29T16:38:45;28.00;43.20
19654;DHT22;9975;48.046;7.804;2022-07-29T16:41:11;27.80;42.70
19654;DHT22;9975;48.046;7.804;2022-07-29T16:43:37;27.90;43.20
19654;DHT22;9975;48.046;7.804;2022-07-29T16:46:02;28.00;43.00
19654;DHT22;9975;48.046;7.804;2022-07-29T16:48:28;27.90;42.20
19654;DHT22;9975;48.046;7.804;2022-07-29T16:50:54;27.90;41.80
19654;DHT22;9975;48.046;7.804;2022-07-29T16:53:20;27.70;41.90
19654;DHT22;9975;48.046;7.804;2022-07-29T16:55:46;27.40;41.50
19654;DHT22;9975;48.046;7.804;2022-07-29T16:58:11;27.40;41.90
19654;DHT22;9975;48.046;7.804;2022-07-29T17:00:37;27.40;41.90
19654;DHT22;9975;48.046;7.804;2022-07-29T17:03:03;27.50;42.10
19654;DHT22;9975;48.046;7.804;2022-07-29T17:05:30;27.50;41.60
19654;DHT22;9975;48.046;7.804;2022-07-29T17:07:55;27.50;41.80
19654;DHT22;9975;48.046;7.804;2022-07-29T17:10:23;27.40;41.50
19654;DHT22;9975;48.046;7.804;2022-07-29T17:12:49;27.20;41.60
19654;DHT22;9975;48.046;7.804;2022-07-29T17:15:14;27.30;41.50
19654;DHT22;9975;48.046;7.804;2022-07-29T17:17:43;27.40;41.40
19654;DHT22;9975;48.046;7.804;2022-07-29T17:20:09;27.40;41.10
19654;DHT22;9975;48.046;7.804;2022-07-29T17:22:36;27.50;41.00
19654;DHT22;9975;48.046;7.804;2022-07-29T17:25:03;27.50;41.10
19654;DHT22;9975;48.046;7.804;2022-07-29T17:27:29;27.30;41.30
19654;DHT22;9975;48.046;7.804;2022-07-29T17:29:54;27.10;41.50
19654;DHT22;9975;48.046;7.804;2022-07-29T17:32:20;27.20;41.90
19654;DHT22;9975;48.046;7.804;2022-07-29T17:34:46;27.10;41.50
19654;DHT22;9975;48.046;7.804;2022-07-29T17:37:11;27.00;42.00
19654;DHT22;9975;48.046;7.804;2022-07-29T17:39:38;26.90;41.60
19654;DHT22;9975;48.046;7.804;2022-07-29T17:42:09;26.80;41.50
19654;DHT22;9975;48.046;7.804;2022-07-29T17:44:35;26.80;41.40
19654;DHT22;9975;48.046;7.804;2022-07-29T17:47:01;26.80;41.80
19654;DHT22;9975;48.046;7.804;2022-07-29T17:49:27;26.70;41.60
19654;DHT22;9975;48.046;7.804;2022-07-29T17:51:53;26.60;41.70
19654;DHT22;9975;48.046;7.804;2022-07-29T17:54:18;26.50;42.10
19654;DHT22;9975;48.046;7.804;2022-07-29T17:56:44;26.50;42.20
19654;DHT22;9975;48.046;7.804;2022-07-29T17:59:10;26.40;42.50
19654;DHT22;9975;48.046;7.804;2022-07-29T18:01:36;26.30;42.80
19654;DHT22;9975;48.046;7.804;2022-07-29T18:04:03;26.20;42.90
19654;DHT22;9975;48.046;7.804;2022-07-29T18:06:29;26.20;42.80
19654;DHT22;9975;48.046;7.804;2022-07-29T18:08:54;26.20;43.00
19654;DHT22;9975;48.046;7.804;2022-07-29T18:11:21;26.10;43.00
19654;DHT22;9975;48.046;7.804;2022-07-29T18:13:47;26.10;43.00
19654;DHT22;9975;48.046;7.804;2022-07-29T18:16:12;26.10;43.00
19654;DHT22;9975;48.046;7.804;2022-07-29T18:18:38;26.00;43.10
19654;DHT22;9975;48.046;7.804;2022-07-29T18:21:04;25.90;43.30
19654;DHT22;9975;48.046;7.804;2022-07-29T18:23:30;25.80;43.40
19654;DHT22;9975;48.046;7.804;2022-07-29T18:25:56;25.80;43.50
19654;DHT22;9975;48.046;7.804;2022-07-29T18:28:26;25.70;43.80